Kapalua-West, HI

03:16 PM HST am 21. Dezember 2014 (GMT -1000)
Lahaina | Change Station
CLOSE
Current Station
Flughafen
Location: Lahaina,
Höhe: 256 ft
Wetterstationen in der Umgebung

Höhe 256 ft 20.96 °N, 156.67 °W | Updated 31 minutes ago

Partly Cloudy
Teils Wolkig
81 °F
gefühlte 82 °F
N
5
Wind Wechselnd Wind aus Wechselnd

Heute
Max. -- | schwach -- °F
--% Regenrisiko
Gestern
Max. -- | schwach -- °F
Precip. -- inch
6:59 AM 5:50 PM
Letztes Viertel, 0% visible
Druck 29.95 inch
Sichtweite 15.0 Meilen
Wolken Few 5000 ft
Hitzeindex 82 °F
Taupunkt 64 °F
Feuchtigkeit 58%
Regen 0.00 inch
Schneehöhe Nicht verfügbar..
UV 3 von 12
Pollen Nicht verfügbar..
Luftqualität Nicht verfügbar..
Flu Activity Nicht verfügbar..
METAR PHJH 220045Z VRB04KT 15SM FEW050 27/18 A2995

More Conditions Fewer Conditions

Druck 29.95 inch
Sichtweite 15.0 Meilen
Wolken Few 5000 ft
Hitzeindex 82 °F
Taupunkt 64 °F
Feuchtigkeit 58%
Regen 0.00 inch
Schneehöhe Nicht verfügbar..
UV 3 von 12
Pollen Nicht verfügbar..
Luftqualität Nicht verfügbar..
Flu Activity Nicht verfügbar..
METAR PHJH 220045Z VRB04KT 15SM FEW050 27/18 A2995

More Conditions Fewer Conditions

10-Day Weather Forecast

Almanac

Astronomie

Dec. 21, 2014 Aufgang Untergang
Genaue Zeit
Bürgerliche Dämmerung
Nautische Dämmerung
Astronomische Dämmerung
Mond
Länge des sichtbaren Lichts
Tageslänge
Tomorrow will be .
, % of the Moon is Illuminated

Heutige Rekorde

State Highs State Lows

Community

WunderPhotos

Upload Photos

1,779,511 Fotos hochgeladen!

WunderBlogs® & News

Nearby

Luftqualität

  Luftqualität LQ Index Schadstoff
Not available.

Schneehöhe

Station Depth Höhe

Erdbebenaktivität

Stadt Distance Mag. Time & Date
Minimum magnitude displayed is 2.5.

küstennahe Wassertemperaturen

Ort Temperatur

Wetterstationen in der Umgebung